Time;durP1;ratioP1;P1;durP2;ratioP2;P2;SDS_P1;SDS_P2;PMS_P1;PMS_P2;Temp;Humidity;BMP_temperature;BMP_pressure;BME280_temperature;BME280_humidity;BME280_pressure;Samples;Min_cycle;Max_cycle;Signal;HPM_P1;HPM_P2
2023/09/25 00:01:24;;;;;;;2.30;1.00;;;;;;;;;;5079104;28;20063;-80
2023/09/25 00:03:50;;;;;;;2.15;1.10;;;;;;;;;;5078821;28;20118;-80
2023/09/25 00:06:16;;;;;;;2.72;1.10;;;;;;;;;;5078942;28;20044;-80
2023/09/25 00:08:42;;;;;;;1.38;1.13;;;;;;;;;;5078941;28;20480;-80
2023/09/25 00:11:08;;;;;;;1.63;1.25;;;;;;;;;;5078462;28;20054;-80
2023/09/25 00:13:36;;;;;;;4.70;1.25;;;;;;;;;;5078362;28;20078;-80
2023/09/25 00:16:02;;;;;;;3.30;1.25;;;;;;;;;;5063313;28;20384;-80
2023/09/25 00:18:29;;;;;;;2.70;1.65;;;;;;;;;;5078842;28;20373;-80
2023/09/25 00:20:55;;;;;;;1.92;1.40;;;;;;;;;;5078705;28;20051;-80
2023/09/25 00:23:21;;;;;;;3.88;1.50;;;;;;;;;;5079592;28;20090;-80
2023/09/25 00:25:47;;;;;;;3.22;1.40;;;;;;;;;;5078710;28;20040;-80
2023/09/25 00:28:13;;;;;;;1.45;1.35;;;;;;;;;;5078582;28;20048;-79
2023/09/25 00:30:40;;;;;;;3.35;1.60;;;;;;;;;;5078414;28;20476;-80
2023/09/25 00:33:06;;;;;;;2.22;1.70;;;;;;;;;;5097150;28;20193;-80
2023/09/25 00:35:32;;;;;;;2.75;1.98;;;;;;;;;;5061973;28;20048;-80
2023/09/25 00:37:59;;;;;;;4.93;2.35;;;;;;;;;;5078240;28;20047;-80
2023/09/25 00:40:25;;;;;;;3.22;1.73;;;;;;;;;;5096243;28;20055;-80
2023/09/25 00:42:55;;;;;;;3.85;1.80;;;;;;;;;;5078669;28;20113;-80
2023/09/25 00:45:22;;;;;;;2.60;1.80;;;;;;;;;;5061986;28;20218;-80
2023/09/25 00:47:49;;;;;;;2.22;1.60;;;;;;;;;;5061651;28;20052;-80
2023/09/25 00:50:17;;;;;;;2.22;1.63;;;;;;;;;;5078023;28;20134;-80
2023/09/25 00:52:44;;;;;;;3.28;1.55;;;;;;;;;;5078227;28;20044;-80
2023/09/25 00:55:10;;;;;;;2.85;1.40;;;;;;;;;;5078126;28;20475;-80
2023/09/25 00:57:39;;;;;;;2.10;1.90;;;;;;;;;;5078053;28;20062;-80
2023/09/25 01:00:10;;;;;;;2.90;2.08;;;;;;;;;;5061095;28;20503;-80
2023/09/25 01:02:36;;;;;;;3.90;2.15;;;;;;;;;;5062273;28;20058;-80
2023/09/25 01:05:05;;;;;;;2.90;1.40;;;;;;;;;;5061541;28;20048;-80
2023/09/25 01:07:31;;;;;;;3.47;1.90;;;;;;;;;;5077841;28;20448;-80
2023/09/25 01:10:17;;;;;;;2.10;1.90;;;;;;;;;;5077182;28;20100;-80
2023/09/25 01:12:44;;;;;;;2.53;1.27;;;;;;;;;;5077491;28;20044;-79
2023/09/25 01:15:11;;;;;;;3.58;1.58;;;;;;;;;;5077795;28;20052;-80
2023/09/25 01:17:37;;;;;;;2.13;1.35;;;;;;;;;;5077695;28;20047;-80
2023/09/25 01:20:13;;;;;;;1.50;1.40;;;;;;;;;;5077780;28;20052;-80
2023/09/25 01:22:43;;;;;;;1.35;1.25;;;;;;;;;;5078500;28;20051;-80
2023/09/25 01:25:10;;;;;;;3.08;1.83;;;;;;;;;;5095408;28;20095;-80
2023/09/25 01:27:37;;;;;;;2.20;1.92;;;;;;;;;;5077551;28;20055;-80
2023/09/25 01:30:05;;;;;;;5.43;2.20;;;;;;;;;;5060905;28;20487;-80
2023/09/25 01:32:31;;;;;;;2.85;1.92;;;;;;;;;;5077381;28;20048;-80
2023/09/25 01:34:57;;;;;;;3.25;1.67;;;;;;;;;;5061436;28;20059;-80
2023/09/25 01:37:23;;;;;;;2.30;1.75;;;;;;;;;;5078082;28;20118;-80
2023/09/25 01:39:49;;;;;;;3.75;2.05;;;;;;;;;;5077527;28;20059;-80
2023/09/25 01:42:15;;;;;;;2.92;1.48;;;;;;;;;;5077189;28;20051;-80
2023/09/25 01:44:41;;;;;;;2.72;2.00;;;;;;;;;;5060139;28;20101;-80
2023/09/25 01:47:07;;;;;;;3.50;2.15;;;;;;;;;;5077127;28;20066;-80
2023/09/25 01:49:33;;;;;;;4.03;1.95;;;;;;;;;;5077859;28;20097;-80
2023/09/25 01:52:07;;;;;;;3.13;2.28;;;;;;;;;;5076581;28;20533;-80
2023/09/25 01:54:33;;;;;;;2.33;1.83;;;;;;;;;;5076723;28;20086;-80
2023/09/25 01:56:59;;;;;;;6.13;2.00;;;;;;;;;;5077681;28;20080;-80
2023/09/25 01:59:25;;;;;;;2.15;2.03;;;;;;;;;;5060252;28;20047;-80
2023/09/25 02:01:51;;;;;;;2.83;1.95;;;;;;;;;;5077098;28;20063;-80
2023/09/25 02:04:17;;;;;;;2.75;1.73;;;;;;;;;;5077108;28;20040;-80
2023/09/25 02:06:43;;;;;;;3.38;2.10;;;;;;;;;;5076816;28;20076;-80
2023/09/25 02:09:10;;;;;;;1.80;1.60;;;;;;;;;;5076774;28;20052;-80
2023/09/25 02:11:36;;;;;;;3.38;1.80;;;;;;;;;;5076325;28;20086;-80
2023/09/25 02:14:02;;;;;;;2.83;1.83;;;;;;;;;;5075958;28;20062;-80
2023/09/25 02:16:29;;;;;;;4.07;2.15;;;;;;;;;;5076898;28;20044;-80
2023/09/25 02:18:55;;;;;;;2.63;2.05;;;;;;;;;;5076518;28;20127;-80
2023/09/25 02:21:21;;;;;;;2.42;1.58;;;;;;;;;;5075527;28;20052;-80
2023/09/25 02:23:48;;;;;;;2.95;2.22;;;;;;;;;;5060651;28;20068;-80
2023/09/25 02:26:14;;;;;;;2.03;1.88;;;;;;;;;;5076699;28;20185;-80
2023/09/25 02:28:40;;;;;;;1.88;1.65;;;;;;;;;;5094206;28;20055;-81
2023/09/25 02:31:07;;;;;;;1.95;1.80;;;;;;;;;;5076026;28;20485;-80
2023/09/25 02:33:33;;;;;;;3.67;1.95;;;;;;;;;;5076221;28;20052;-81
2023/09/25 02:36:07;;;;;;;3.58;2.15;;;;;;;;;;5077024;28;20040;-80
2023/09/25 02:38:33;;;;;;;2.83;1.90;;;;;;;;;;5076202;28;20130;-80
2023/09/25 02:40:59;;;;;;;2.85;2.10;;;;;;;;;;5076309;28;20083;-80
2023/09/25 02:43:25;;;;;;;2.78;2.30;;;;;;;;;;5076470;28;20051;-80
2023/09/25 02:45:52;;;;;;;3.33;1.90;;;;;;;;;;5075894;28;20482;-80
2023/09/25 02:48:18;;;;;;;3.35;1.80;;;;;;;;;;5076121;28;20063;-80
2023/09/25 02:50:46;;;;;;;1.90;1.63;;;;;;;;;;5076637;28;20047;-80
2023/09/25 02:53:12;;;;;;;2.95;2.00;;;;;;;;;;5075810;28;20391;-80
2023/09/25 02:55:38;;;;;;;3.50;2.03;;;;;;;;;;5042911;28;20193;-80
2023/09/25 02:58:05;;;;;;;5.22;2.03;;;;;;;;;;5059407;28;20094;-80
2023/09/25 03:00:31;;;;;;;2.03;1.83;;;;;;;;;;5075753;28;20488;-80
2023/09/25 03:02:58;;;;;;;2.33;2.20;;;;;;;;;;5076276;28;20052;-80
2023/09/25 03:05:24;;;;;;;1.77;1.67;;;;;;;;;;5059214;28;20048;-80
2023/09/25 03:07:50;;;;;;;2.17;1.98;;;;;;;;;;5076230;28;20040;-80
2023/09/25 03:10:16;;;;;;;2.40;1.92;;;;;;;;;;5093629;28;20269;-80
2023/09/25 03:12:43;;;;;;;1.85;1.75;;;;;;;;;;5075899;28;20059;-80
2023/09/25 03:15:09;;;;;;;4.60;1.98;;;;;;;;;;5075820;28;20044;-80
2023/09/25 03:17:35;;;;;;;2.80;2.05;;;;;;;;;;5075861;28;20396;-80
2023/09/25 03:20:14;;;;;;;2.20;2.00;;;;;;;;;;5058995;28;20051;-80
2023/09/25 03:22:41;;;;;;;2.13;2.00;;;;;;;;;;5075771;28;20131;-80
2023/09/25 03:25:07;;;;;;;3.22;1.85;;;;;;;;;;5075769;28;20488;-80
2023/09/25 03:27:33;;;;;;;2.83;1.92;;;;;;;;;;5093596;28;20156;-80
2023/09/25 03:29:59;;;;;;;3.00;2.47;;;;;;;;;;5076423;28;20411;-80
2023/09/25 03:32:25;;;;;;;2.20;2.08;;;;;;;;;;5078911;28;20048;-80
2023/09/25 03:34:51;;;;;;;2.53;2.33;;;;;;;;;;5079963;28;20048;-80
2023/09/25 03:37:18;;;;;;;4.55;2.45;;;;;;;;;;5063782;28;20048;-80
2023/09/25 03:39:44;;;;;;;2.90;1.98;;;;;;;;;;5062937;28;20052;-80
2023/09/25 03:42:10;;;;;;;2.97;2.22;;;;;;;;;;5062913;28;20044;-80
2023/09/25 03:44:36;;;;;;;2.30;2.10;;;;;;;;;;5063083;28;20040;-80
2023/09/25 03:47:02;;;;;;;3.42;2.72;;;;;;;;;;5079423;28;20079;-80
2023/09/25 03:49:28;;;;;;;2.20;2.10;;;;;;;;;;5063090;28;20054;-80
2023/09/25 03:51:54;;;;;;;3.85;2.03;;;;;;;;;;5078910;28;20052;-81
2023/09/25 03:54:20;;;;;;;3.75;2.85;;;;;;;;;;5097233;28;20043;-80
2023/09/25 03:56:46;;;;;;;2.72;2.53;;;;;;;;;;5079204;28;20051;-80
2023/09/25 03:59:12;;;;;;;5.10;2.63;;;;;;;;;;5079171;28;20531;-80
2023/09/25 04:01:38;;;;;;;2.95;2.75;;;;;;;;;;5079424;28;20050;-80
2023/09/25 04:04:06;;;;;;;3.00;2.80;;;;;;;;;;5079887;28;20087;-80
2023/09/25 04:06:33;;;;;;;3.67;3.10;;;;;;;;;;5079906;28;20127;-80
2023/09/25 04:08:59;;;;;;;2.83;2.55;;;;;;;;;;5079033;28;20122;-80
2023/09/25 04:11:25;;;;;;;3.70;2.13;;;;;;;;;;5079557;28;20117;-80
2023/09/25 04:13:51;;;;;;;2.72;2.53;;;;;;;;;;5079318;28;20056;-80
2023/09/25 04:16:17;;;;;;;2.17;2.03;;;;;;;;;;5096780;28;20051;-80
2023/09/25 04:18:43;;;;;;;3.42;2.50;;;;;;;;;;5061772;28;20048;-80
2023/09/25 04:21:14;;;;;;;2.45;2.25;;;;;;;;;;5079018;28;20087;-80
2023/09/25 04:23:41;;;;;;;3.10;2.00;;;;;;;;;;5079611;28;20098;-80
2023/09/25 04:26:07;;;;;;;2.30;2.20;;;;;;;;;;5062741;28;20137;-80
2023/09/25 04:28:34;;;;;;;3.67;2.38;;;;;;;;;;5078649;28;20497;-80
2023/09/25 04:31:04;;;;;;;2.30;2.10;;;;;;;;;;5078311;28;20131;-80
2023/09/25 04:33:32;;;;;;;2.40;2.17;;;;;;;;;;5078488;28;20098;-80
2023/09/25 04:35:59;;;;;;;2.83;1.98;;;;;;;;;;5078422;28;20044;-80
2023/09/25 04:38:26;;;;;;;2.30;2.10;;;;;;;;;;5078430;28;20059;-80
2023/09/25 04:40:52;;;;;;;2.38;2.17;;;;;;;;;;5079244;28;20059;-80
2023/09/25 04:43:18;;;;;;;1.80;1.67;;;;;;;;;;5077826;28;20048;-81
2023/09/25 04:45:46;;;;;;;2.28;2.17;;;;;;;;;;5078917;28;20043;-80
2023/09/25 04:48:13;;;;;;;2.08;1.85;;;;;;;;;;5078206;28;20070;-80
2023/09/25 04:50:40;;;;;;;2.78;2.03;;;;;;;;;;5078016;28;20047;-80
2023/09/25 04:53:08;;;;;;;5.05;1.92;;;;;;;;;;5078167;28;20052;-80
2023/09/25 04:55:36;;;;;;;2.33;2.13;;;;;;;;;;5062673;28;20134;-80
2023/09/25 04:58:02;;;;;;;4.22;2.53;;;;;;;;;;5078045;28;20058;-80
2023/09/25 05:00:28;;;;;;;2.85;2.65;;;;;;;;;;5077907;28;20073;-80
2023/09/25 05:02:56;;;;;;;4.53;2.00;;;;;;;;;;5078617;28;20046;-80
2023/09/25 05:05:22;;;;;;;2.45;1.90;;;;;;;;;;5078254;28;20051;-80
2023/09/25 05:07:51;;;;;;;3.63;2.00;;;;;;;;;;5077776;28;20043;-80
2023/09/25 05:10:19;;;;;;;2.75;2.55;;;;;;;;;;5077706;28;20087;-80
2023/09/25 05:12:45;;;;;;;4.40;1.95;;;;;;;;;;5078184;28;20438;-80
2023/09/25 05:15:12;;;;;;;2.83;2.00;;;;;;;;;;5078495;28;20044;-80
2023/09/25 05:17:38;;;;;;;3.42;2.40;;;;;;;;;;5061279;28;20052;-80
2023/09/25 05:20:10;;;;;;;3.22;1.92;;;;;;;;;;5077776;28;20093;-81
2023/09/25 05:22:37;;;;;;;3.17;1.70;;;;;;;;;;5077500;28;20117;-80
2023/09/25 05:25:04;;;;;;;3.10;1.90;;;;;;;;;;5060805;28;20051;-80
2023/09/25 05:27:30;;;;;;;1.98;1.67;;;;;;;;;;5078019;28;20372;-80
2023/09/25 05:29:57;;;;;;;2.22;1.63;;;;;;;;;;5077305;28;20120;-80
2023/09/25 05:32:23;;;;;;;2.72;1.67;;;;;;;;;;5077401;28;20052;-80
2023/09/25 05:34:49;;;;;;;3.53;1.42;;;;;;;;;;5077340;28;20400;-79
2023/09/25 05:37:15;;;;;;;3.78;1.30;;;;;;;;;;5077275;28;20087;-80
2023/09/25 05:39:41;;;;;;;2.50;1.55;;;;;;;;;;5078045;28;20052;-80
2023/09/25 05:42:07;;;;;;;1.27;1.17;;;;;;;;;;5077984;28;20055;-80
2023/09/25 05:44:34;;;;;;;2.90;1.60;;;;;;;;;;5077404;28;20101;-80
2023/09/25 05:47:00;;;;;;;4.43;1.92;;;;;;;;;;5076746;28;20052;-80
2023/09/25 05:49:26;;;;;;;2.03;1.23;;;;;;;;;;5077043;28;20048;-80
2023/09/25 05:51:54;;;;;;;2.25;1.20;;;;;;;;;;5076654;28;20044;-80
2023/09/25 05:54:20;;;;;;;1.75;1.42;;;;;;;;;;5076775;28;20112;-79
2023/09/25 05:56:47;;;;;;;2.22;1.33;;;;;;;;;;5076898;28;20052;-80
2023/09/25 05:59:14;;;;;;;2.47;1.60;;;;;;;;;;5060966;28;20442;-79
2023/09/25 06:01:40;;;;;;;2.65;1.30;;;;;;;;;;5077059;28;20079;-79
2023/09/25 06:04:06;;;;;;;2.90;1.33;;;;;;;;;;5095157;28;20044;-79
2023/09/25 06:06:35;;;;;;;2.05;1.00;;;;;;;;;;5077501;28;20047;-79
2023/09/25 06:09:02;;;;;;;4.72;1.30;;;;;;;;;;5076894;28;20044;-79
2023/09/25 06:11:28;;;;;;;2.47;1.20;;;;;;;;;;5076903;28;20044;-79
2023/09/25 06:13:54;;;;;;;1.67;0.98;;;;;;;;;;5081652;28;20056;-79
2023/09/25 06:16:20;;;;;;;2.35;1.13;;;;;;;;;;5074383;28;20044;-79
2023/09/25 06:18:47;;;;;;;3.47;1.15;;;;;;;;;;5057318;28;20079;-79
2023/09/25 06:21:13;;;;;;;5.07;1.40;;;;;;;;;;5056353;28;20094;-79
2023/09/25 06:23:40;;;;;;;2.22;1.10;;;;;;;;;;5040075;28;20048;-79
2023/09/25 06:26:06;;;;;;;1.27;1.10;;;;;;;;;;5057188;28;20386;-79
2023/09/25 06:28:33;;;;;;;1.25;0.70;;;;;;;;;;5056233;28;20036;-79
2023/09/25 06:31:02;;;;;;;1.00;0.77;;;;;;;;;;5056144;28;20048;-79
2023/09/25 06:33:28;;;;;;;2.88;1.05;;;;;;;;;;5057103;28;20380;-79
2023/09/25 06:35:55;;;;;;;2.17;1.20;;;;;;;;;;5056366;28;20135;-79
2023/09/25 06:38:21;;;;;;;1.65;0.90;;;;;;;;;;5056149;28;20503;-79
2023/09/25 06:40:47;;;;;;;2.83;1.00;;;;;;;;;;5040455;28;20052;-79
2023/09/25 06:43:13;;;;;;;2.50;0.98;;;;;;;;;;5056152;28;20135;-79
2023/09/25 06:45:40;;;;;;;3.28;0.98;;;;;;;;;;5056315;28;20457;-79
2023/09/25 06:48:06;;;;;;;2.97;0.80;;;;;;;;;;5039141;28;20080;-79
2023/09/25 06:50:32;;;;;;;3.72;1.00;;;;;;;;;;5055841;28;20052;-79
2023/09/25 06:52:58;;;;;;;1.60;0.90;;;;;;;;;;5056840;28;20044;-78
2023/09/25 06:55:24;;;;;;;1.80;1.02;;;;;;;;;;5055870;28;20131;-79
2023/09/25 06:57:51;;;;;;;1.35;0.80;;;;;;;;;;5039296;28;20473;-79
2023/09/25 07:00:17;;;;;;;3.92;1.05;;;;;;;;;;5055642;28;20048;-79
2023/09/25 07:02:43;;;;;;;2.60;1.25;;;;;;;;;;5073208;28;20408;-80
2023/09/25 07:05:11;;;;;;;1.58;1.20;;;;;;;;;;5056641;28;20095;-79
2023/09/25 07:07:38;;;;;;;2.22;1.00;;;;;;;;;;5055257;28;20519;-79
2023/09/25 07:10:09;;;;;;;1.20;1.10;;;;;;;;;;5073467;28;20044;-79
2023/09/25 07:12:36;;;;;;;1.63;0.90;;;;;;;;;;5056387;28;20048;-79
2023/09/25 07:15:03;;;;;;;1.92;1.05;;;;;;;;;;5056093;28;20114;-79
2023/09/25 07:17:29;;;;;;;4.25;1.10;;;;;;;;;;5055730;28;20098;-79
2023/09/25 07:19:56;;;;;;;2.83;1.08;;;;;;;;;;5039057;28;20044;-79
2023/09/25 07:22:22;;;;;;;3.30;0.90;;;;;;;;;;5055638;28;20049;-80
2023/09/25 07:24:49;;;;;;;3.00;0.77;;;;;;;;;;5055393;28;20098;-79
2023/09/25 07:27:15;;;;;;;2.00;0.68;;;;;;;;;;5055684;28;20048;-79
2023/09/25 07:29:48;;;;;;;2.45;0.98;;;;;;;;;;5055866;28;20052;-80
2023/09/25 07:32:15;;;;;;;3.80;1.17;;;;;;;;;;5055568;28;20044;-79
2023/09/25 07:34:42;;;;;;;1.83;0.95;;;;;;;;;;5056413;28;20044;-80
2023/09/25 07:37:09;;;;;;;2.05;1.23;;;;;;;;;;5056386;28;20053;-79
2023/09/25 07:39:39;;;;;;;1.42;1.00;;;;;;;;;;5038928;28;20075;-79
2023/09/25 07:42:06;;;;;;;2.13;0.80;;;;;;;;;;5039003;28;20047;-79
2023/09/25 07:44:34;;;;;;;3.35;1.05;;;;;;;;;;5055780;28;20050;-79
2023/09/25 07:47:06;;;;;;;2.92;0.75;;;;;;;;;;5055727;28;20127;-79
2023/09/25 07:49:32;;;;;;;3.05;0.85;;;;;;;;;;5055513;28;20490;-79
2023/09/25 07:52:00;;;;;;;2.95;0.82;;;;;;;;;;5055427;28;20040;-79
2023/09/25 07:54:26;;;;;;;3.20;1.02;;;;;;;;;;5055404;28;20044;-79
2023/09/25 07:56:53;;;;;;;2.75;0.70;;;;;;;;;;5056216;28;20052;-79
2023/09/25 07:59:25;;;;;;;1.70;0.90;;;;;;;;;;5038765;28;20075;-79
2023/09/25 08:01:55;;;;;;;3.78;1.00;;;;;;;;;;5055684;28;20052;-79
2023/09/25 08:04:21;;;;;;;4.05;0.93;;;;;;;;;;5055335;28;20174;-80
2023/09/25 08:06:47;;;;;;;4.65;0.80;;;;;;;;;;5073034;28;20055;-79
2023/09/25 08:09:13;;;;;;;1.05;0.70;;;;;;;;;;5055071;28;20048;-79
2023/09/25 08:11:39;;;;;;;2.75;0.55;;;;;;;;;;5055828;28;20131;-79
2023/09/25 08:14:05;;;;;;;3.90;1.02;;;;;;;;;;5068740;28;20480;-79
2023/09/25 08:16:32;;;;;;;2.20;0.82;;;;;;;;;;5058950;28;20047;-79
2023/09/25 08:18:58;;;;;;;3.60;0.70;;;;;;;;;;5076755;28;20109;-79
2023/09/25 08:21:24;;;;;;;1.70;0.95;;;;;;;;;;5062330;28;20040;-80
2023/09/25 08:23:50;;;;;;;1.83;0.60;;;;;;;;;;5079498;28;20043;-79
2023/09/25 08:26:17;;;;;;;1.77;1.00;;;;;;;;;;5062088;28;20396;-79
2023/09/25 08:28:43;;;;;;;2.45;0.95;;;;;;;;;;5062255;28;20052;-79
2023/09/25 08:31:09;;;;;;;2.53;1.00;;;;;;;;;;5061767;28;20040;-80
2023/09/25 08:33:35;;;;;;;1.35;0.80;;;;;;;;;;5078614;28;20052;-79
2023/09/25 08:36:01;;;;;;;1.27;1.02;;;;;;;;;;5078652;28;20047;-80
2023/09/25 08:38:27;;;;;;;3.75;1.23;;;;;;;;;;5061782;28;20132;-80
2023/09/25 08:40:53;;;;;;;1.20;0.82;;;;;;;;;;5078750;28;20044;-79
2023/09/25 08:43:21;;;;;;;1.90;0.80;;;;;;;;;;5061483;28;20063;-79
2023/09/25 08:45:50;;;;;;;1.35;0.90;;;;;;;;;;5078288;28;20055;-79
2023/09/25 08:48:17;;;;;;;2.08;0.65;;;;;;;;;;5096186;28;20055;-79
2023/09/25 08:50:44;;;;;;;1.40;0.80;;;;;;;;;;5077766;28;20249;-80
2023/09/25 08:53:10;;;;;;;2.22;1.00;;;;;;;;;;5077878;28;20055;-79
2023/09/25 08:55:36;;;;;;;4.80;0.90;;;;;;;;;;5078137;28;20048;-79
2023/09/25 08:58:04;;;;;;;1.88;0.70;;;;;;;;;;5077864;28;20070;-79
2023/09/25 09:00:32;;;;;;;1.60;0.77;;;;;;;;;;5078012;28;20127;-80
2023/09/25 09:02:58;;;;;;;2.40;0.60;;;;;;;;;;5095823;28;20052;-80
2023/09/25 09:05:24;;;;;;;3.28;0.82;;;;;;;;;;5077894;28;20048;-80
2023/09/25 09:07:57;;;;;;;2.70;0.60;;;;;;;;;;5078242;28;20435;-80
2023/09/25 09:10:23;;;;;;;2.95;0.60;;;;;;;;;;5078580;28;20050;-79
2023/09/25 09:12:53;;;;;;;2.63;0.90;;;;;;;;;;5060920;28;20048;-80
2023/09/25 09:15:26;;;;;;;3.63;0.57;;;;;;;;;;5078028;28;20102;-79
2023/09/25 09:17:56;;;;;;;1.05;0.68;;;;;;;;;;5078532;28;20439;-80
2023/09/25 09:20:23;;;;;;;1.83;0.65;;;;;;;;;;5077576;28;20048;-80
2023/09/25 09:22:53;;;;;;;3.75;0.70;;;;;;;;;;5077621;28;20056;-80
2023/09/25 09:25:29;;;;;;;3.60;0.80;;;;;;;;;;5078425;28;20373;-80
2023/09/25 09:27:58;;;;;;;3.10;0.75;;;;;;;;;;5077903;28;20157;-80
2023/09/25 09:30:25;;;;;;;2.63;0.70;;;;;;;;;;5076940;28;20040;-79
2023/09/25 09:32:52;;;;;;;2.28;0.80;;;;;;;;;;5077696;28;20051;-80
2023/09/25 09:35:19;;;;;;;5.30;0.70;;;;;;;;;;5077322;28;20044;-80
2023/09/25 09:37:48;;;;;;;4.15;0.82;;;;;;;;;;5077284;28;20047;-80
2023/09/25 09:40:14;;;;;;;1.50;0.57;;;;;;;;;;5060900;28;20059;-80
2023/09/25 09:42:41;;;;;;;1.00;0.60;;;;;;;;;;5077269;28;20123;-80
2023/09/25 09:45:08;;;;;;;2.28;0.68;;;;;;;;;;5077231;28;20463;-80
2023/09/25 09:47:39;;;;;;;1.65;0.60;;;;;;;;;;5076911;28;20484;-80
2023/09/25 09:50:05;;;;;;;2.75;0.55;;;;;;;;;;5077339;28;20043;-80
2023/09/25 09:52:33;;;;;;;1.65;0.57;;;;;;;;;;5095444;28;20047;-80
2023/09/25 09:54:59;;;;;;;2.58;0.60;;;;;;;;;;5076983;28;20080;-80
2023/09/25 09:57:27;;;;;;;1.75;0.70;;;;;;;;;;5060129;28;20475;-81
2023/09/25 09:59:53;;;;;;;3.20;0.68;;;;;;;;;;5076796;28;20048;-82
2023/09/25 10:02:20;;;;;;;2.05;0.80;;;;;;;;;;5077080;28;20052;-80
2023/09/25 10:04:46;;;;;;;2.33;0.60;;;;;;;;;;5076530;28;20540;-80
2023/09/25 10:07:13;;;;;;;1.55;0.60;;;;;;;;;;5076746;28;20515;-80
2023/09/25 10:09:56;;;;;;;2.83;0.70;;;;;;;;;;5060159;28;20036;-80
2023/09/25 10:12:38;;;;;;;2.95;1.48;;;;;;;;;;5077462;28;20550;-80
2023/09/25 10:15:06;;;;;;;2.50;0.90;;;;;;;;;;5095114;28;20087;-79
2023/09/25 10:17:42;;;;;;;3.05;0.60;;;;;;;;;;5076837;28;20071;-80
2023/09/25 10:20:27;;;;;;;1.05;0.70;;;;;;;;;;5076492;28;20456;-80
2023/09/25 10:22:53;;;;;;;0.80;0.50;;;;;;;;;;5076475;28;20055;-80
2023/09/25 10:25:20;;;;;;;4.43;0.80;;;;;;;;;;5076481;28;20054;-80
2023/09/25 10:27:47;;;;;;;2.80;0.85;;;;;;;;;;5076394;28;20135;-80
2023/09/25 10:30:16;;;;;;;1.75;0.52;;;;;;;;;;5059546;28;20109;-80
2023/09/25 10:32:52;;;;;;;1.88;0.80;;;;;;;;;;5059925;28;20051;-80
2023/09/25 10:35:37;;;;;;;1.90;0.60;;;;;;;;;;5077116;28;20052;-80
2023/09/25 10:38:25;;;;;;;3.58;0.60;;;;;;;;;;5076270;28;20051;-80
2023/09/25 10:40:54;;;;;;;4.28;0.80;;;;;;;;;;5075337;28;20048;-80
2023/09/25 10:43:21;;;;;;;1.00;0.57;;;;;;;;;;5076408;28;20137;-80
2023/09/25 10:45:47;;;;;;;1.52;0.52;;;;;;;;;;5076055;28;20415;-81
2023/09/25 10:48:14;;;;;;;4.10;0.70;;;;;;;;;;5076076;28;20047;-80
2023/09/25 10:50:41;;;;;;;2.85;0.50;;;;;;;;;;5076633;28;20116;-80
2023/09/25 10:53:14;;;;;;;1.30;0.40;;;;;;;;;;5093913;28;20052;-80
2023/09/25 10:55:40;;;;;;;3.17;0.47;;;;;;;;;;5075763;28;20448;-80
2023/09/25 10:58:07;;;;;;;3.10;0.70;;;;;;;;;;5075427;28;20094;-81
2023/09/25 11:00:35;;;;;;;3.22;0.70;;;;;;;;;;5075769;28;20193;-80
2023/09/25 11:03:02;;;;;;;2.10;0.50;;;;;;;;;;5075758;28;20047;-80
2023/09/25 11:05:32;;;;;;;1.23;0.50;;;;;;;;;;5075623;28;20044;-81
2023/09/25 11:07:59;;;;;;;2.10;0.50;;;;;;;;;;5075651;28;20519;-79
2023/09/25 11:10:29;;;;;;;9.20;1.35;;;;;;;;;;5076738;28;20036;-80
2023/09/25 11:12:56;;;;;;;1.60;0.70;;;;;;;;;;5056760;28;20056;-81
2023/09/25 11:15:22;;;;;;;2.08;0.70;;;;;;;;;;5055815;28;20051;-79
2023/09/25 11:17:49;;;;;;;2.35;0.60;;;;;;;;;;5055788;28;20055;-80
2023/09/25 11:20:18;;;;;;;1.90;0.50;;;;;;;;;;5055763;28;20435;-79
2023/09/25 11:22:48;;;;;;;2.63;0.50;;;;;;;;;;5039046;28;20076;-80
2023/09/25 11:25:17;;;;;;;2.60;0.52;;;;;;;;;;5039977;28;20080;-80
2023/09/25 11:27:52;;;;;;;1.75;0.70;;;;;;;;;;5039046;28;20044;-77
2023/09/25 11:30:19;;;;;;;0.70;0.30;;;;;;;;;;5038636;28;20488;-77
2023/09/25 11:32:45;;;;;;;1.75;0.50;;;;;;;;;;5056475;28;20203;-77
2023/09/25 11:35:13;;;;;;;2.72;0.50;;;;;;;;;;5055512;28;20131;-77
2023/09/25 11:37:59;;;;;;;3.33;0.70;;;;;;;;;;5055824;28;20055;-77
2023/09/25 11:40:26;;;;;;;2.60;0.60;;;;;;;;;;5038891;28;20509;-77
2023/09/25 11:42:52;;;;;;;2.35;0.50;;;;;;;;;;5055448;28;20055;-77
2023/09/25 11:45:18;;;;;;;1.25;0.70;;;;;;;;;;5038870;28;20087;-77
2023/09/25 11:47:45;;;;;;;2.08;0.60;;;;;;;;;;5055437;28;20381;-77
2023/09/25 11:50:13;;;;;;;2.08;0.68;;;;;;;;;;5039522;28;20097;-80
2023/09/25 11:52:41;;;;;;;1.50;0.70;;;;;;;;;;5039839;28;20044;-79
2023/09/25 11:55:11;;;;;;;1.33;0.40;;;;;;;;;;5059276;28;20101;-79
2023/09/25 11:57:41;;;;;;;2.88;0.60;;;;;;;;;;5059198;28;20049;-79
2023/09/25 12:00:08;;;;;;;1.52;0.70;;;;;;;;;;5059140;28;20056;-79
2023/09/25 12:02:34;;;;;;;2.35;0.52;;;;;;;;;;5059127;28;20040;-80
2023/09/25 12:05:00;;;;;;;1.50;0.50;;;;;;;;;;5026301;28;20587;-80
2023/09/25 12:07:31;;;;;;;1.23;0.70;;;;;;;;;;5059020;28;20040;-80
2023/09/25 12:09:57;;;;;;;1.83;0.65;;;;;;;;;;5026691;28;20105;-79
2023/09/25 12:12:23;;;;;;;1.83;0.45;;;;;;;;;;5059388;28;20048;-80
2023/09/25 12:14:51;;;;;;;1.40;0.55;;;;;;;;;;5077191;28;20048;-79
2023/09/25 12:17:18;;;;;;;1.92;0.60;;;;;;;;;;5059116;28;20106;-79
2023/09/25 12:19:45;;;;;;;2.05;0.57;;;;;;;;;;5042619;28;20045;-80
2023/09/25 12:22:11;;;;;;;3.53;0.60;;;;;;;;;;5058644;28;20052;-80
2023/09/25 12:24:38;;;;;;;1.63;0.50;;;;;;;;;;5042424;28;20049;-80
2023/09/25 12:27:04;;;;;;;2.08;0.50;;;;;;;;;;5058631;28;20127;-80
2023/09/25 12:29:30;;;;;;;1.30;0.52;;;;;;;;;;5059456;28;20147;-79
2023/09/25 12:31:57;;;;;;;1.48;0.50;;;;;;;;;;5059121;28;20048;-79
2023/09/25 12:34:23;;;;;;;1.52;0.52;;;;;;;;;;5058222;28;20041;-80
2023/09/25 12:36:49;;;;;;;3.70;0.63;;;;;;;;;;5042194;28;20041;-77
2023/09/25 12:39:16;;;;;;;2.00;0.45;;;;;;;;;;5058089;28;20052;-80
2023/09/25 12:41:42;;;;;;;1.88;0.40;;;;;;;;;;5059228;28;20131;-80
2023/09/25 12:44:09;;;;;;;2.00;0.50;;;;;;;;;;5059178;28;20059;-77
2023/09/25 12:46:35;;;;;;;3.38;0.77;;;;;;;;;;5058835;28;20049;-77
2023/09/25 12:49:02;;;;;;;3.35;0.60;;;;;;;;;;5059023;28;20055;-77
2023/09/25 12:51:28;;;;;;;1.88;0.50;;;;;;;;;;5058193;28;20124;-80
2023/09/25 12:53:55;;;;;;;1.58;0.50;;;;;;;;;;5057831;28;20397;-78
2023/09/25 12:56:21;;;;;;;1.55;0.40;;;;;;;;;;5058062;28;20057;-78
2023/09/25 12:58:47;;;;;;;1.55;0.40;;;;;;;;;;5058351;28;20063;-78
2023/09/25 13:01:13;;;;;;;2.83;0.50;;;;;;;;;;5041321;28;20159;-78
2023/09/25 13:03:39;;;;;;;2.42;0.70;;;;;;;;;;5057517;28;20071;-78
2023/09/25 13:06:05;;;;;;;2.80;0.80;;;;;;;;;;5075184;28;20048;-78
2023/09/25 13:08:32;;;;;;;2.25;0.50;;;;;;;;;;5058113;28;20049;-78
2023/09/25 13:10:58;;;;;;;1.52;0.50;;;;;;;;;;5057656;28;20547;-78
2023/09/25 13:13:24;;;;;;;1.17;0.50;;;;;;;;;;5046947;28;20063;-78
2023/09/25 13:15:50;;;;;;;1.17;0.47;;;;;;;;;;5077818;28;20487;-78
2023/09/25 13:18:16;;;;;;;2.22;0.65;;;;;;;;;;5060736;28;20062;-78
2023/09/25 13:20:42;;;;;;;4.20;0.50;;;;;;;;;;5077353;28;20088;-78
2023/09/25 13:23:08;;;;;;;4.70;0.52;;;;;;;;;;5095539;28;20176;-78
2023/09/25 13:25:34;;;;;;;2.42;0.63;;;;;;;;;;5077640;28;20470;-77
2023/09/25 13:28:00;;;;;;;0.70;0.40;;;;;;;;;;5077552;28;20090;-78
2023/09/25 13:30:26;;;;;;;1.40;0.35;;;;;;;;;;5077494;28;20104;-77
2023/09/25 13:32:52;;;;;;;2.05;0.60;;;;;;;;;;5077433;28;20059;-78
2023/09/25 13:35:19;;;;;;;1.83;0.50;;;;;;;;;;5077364;28;20056;-77
2023/09/25 13:37:46;;;;;;;2.88;0.70;;;;;;;;;;5077380;28;20476;-78
2023/09/25 13:40:16;;;;;;;5.45;0.43;;;;;;;;;;5060893;28;20052;-78
2023/09/25 13:42:44;;;;;;;2.72;0.50;;;;;;;;;;5077256;28;20048;-78
2023/09/25 13:45:12;;;;;;;2.08;0.60;;;;;;;;;;5061281;28;20054;-78
2023/09/25 13:47:39;;;;;;;1.73;0.55;;;;;;;;;;5077864;28;20056;-78
2023/09/25 13:50:06;;;;;;;1.60;0.60;;;;;;;;;;5060371;28;20052;-78
2023/09/25 13:52:32;;;;;;;1.30;0.50;;;;;;;;;;5076912;28;20458;-78
2023/09/25 13:54:58;;;;;;;2.78;0.50;;;;;;;;;;5060496;28;20086;-78
2023/09/25 13:57:24;;;;;;;1.38;0.40;;;;;;;;;;5076704;28;20051;-78
2023/09/25 13:59:50;;;;;;;3.17;0.50;;;;;;;;;;5076697;28;20048;-78
2023/09/25 14:02:17;;;;;;;5.80;0.63;;;;;;;;;;5060055;28;20477;-78
2023/09/25 14:04:43;;;;;;;1.40;0.52;;;;;;;;;;5077681;28;20051;-78
2023/09/25 14:07:09;;;;;;;2.70;0.50;;;;;;;;;;5077081;28;20043;-78
2023/09/25 14:09:39;;;;;;;3.10;0.50;;;;;;;;;;5076722;28;20040;-78
2023/09/25 14:12:05;;;;;;;1.35;0.60;;;;;;;;;;5076490;28;20079;-78
2023/09/25 14:14:41;;;;;;;2.70;0.52;;;;;;;;;;5076671;28;20056;-78
2023/09/25 14:17:08;;;;;;;3.28;0.60;;;;;;;;;;5060723;28;20064;-78
2023/09/25 14:19:35;;;;;;;2.25;0.50;;;;;;;;;;5076516;28;20039;-78
2023/09/25 14:22:02;;;;;;;2.13;0.50;;;;;;;;;;5077268;28;20074;-77
2023/09/25 14:24:28;;;;;;;3.03;0.60;;;;;;;;;;5059725;28;20044;-78
2023/09/25 14:26:59;;;;;;;1.50;0.57;;;;;;;;;;5076299;28;20040;-77
2023/09/25 14:29:25;;;;;;;1.00;0.50;;;;;;;;;;5060914;28;20087;-78
2023/09/25 14:31:51;;;;;;;1.77;0.50;;;;;;;;;;5076076;28;20044;-77
2023/09/25 14:34:17;;;;;;;0.90;0.40;;;;;;;;;;5094407;28;20044;-77
2023/09/25 14:36:43;;;;;;;0.90;0.60;;;;;;;;;;5076592;28;20048;-78
2023/09/25 14:39:09;;;;;;;3.40;0.60;;;;;;;;;;5076229;28;20040;-78
2023/09/25 14:41:36;;;;;;;2.65;0.60;;;;;;;;;;5077014;28;20468;-78
2023/09/25 14:44:02;;;;;;;1.83;0.60;;;;;;;;;;5076961;28;20495;-78